createdAt,value
2018-12-30T00:00:38.073Z,26.60
2018-12-30T00:03:06.557Z,22.20
2018-12-30T00:05:34.997Z,21.50
2018-12-30T00:08:03.142Z,21.00
2018-12-30T00:10:31.310Z,23.23
2018-12-30T00:12:59.449Z,21.43
2018-12-30T00:15:28.231Z,25.77
2018-12-30T00:17:56.404Z,24.13
2018-12-30T00:20:24.539Z,21.03
2018-12-30T00:22:52.685Z,22.70
2018-12-30T00:25:20.858Z,24.57
2018-12-30T00:27:49.394Z,25.77
2018-12-30T00:30:17.573Z,22.77
2018-12-30T00:32:45.710Z,22.30
2018-12-30T00:35:13.885Z,25.77
2018-12-30T00:37:42.025Z,27.37
2018-12-30T00:40:10.166Z,23.87
2018-12-30T00:42:38.846Z,24.07
2018-12-30T00:45:06.984Z,28.07
2018-12-30T00:47:35.153Z,24.00
2018-12-30T00:50:03.298Z,24.83
2018-12-30T00:52:31.469Z,25.27
2018-12-30T00:54:59.606Z,24.50
2018-12-30T00:57:28.145Z,28.10
2018-12-30T00:59:56.412Z,27.77
2018-12-30T01:02:24.556Z,26.63
2018-12-30T01:04:52.727Z,23.83
2018-12-30T01:07:20.858Z,31.40
2018-12-30T01:09:49.030Z,28.33
2018-12-30T01:12:17.175Z,32.70
2018-12-30T01:14:45.342Z,31.73
2018-12-30T01:17:13.482Z,34.00
2018-12-30T01:19:41.622Z,32.67
2018-12-30T01:22:09.796Z,31.20
2018-12-30T01:24:37.938Z,30.03
2018-12-30T01:27:06.118Z,26.53
2018-12-30T01:29:34.297Z,29.47
2018-12-30T01:32:02.426Z,33.77
2018-12-30T01:34:30.571Z,30.20
2018-12-30T01:36:58.738Z,32.53
2018-12-30T01:39:26.985Z,27.53
2018-12-30T01:41:55.121Z,32.97
2018-12-30T01:44:23.303Z,32.47
2018-12-30T01:46:51.434Z,33.80
2018-12-30T01:49:19.617Z,26.93
2018-12-30T01:51:51.147Z,32.60
2018-12-30T01:54:19.297Z,27.47
2018-12-30T01:56:47.445Z,25.20
2018-12-30T01:59:15.618Z,30.53
2018-12-30T02:01:43.774Z,32.77
2018-12-30T02:04:11.950Z,26.23
2018-12-30T02:06:40.390Z,33.43
2018-12-30T02:09:08.563Z,32.20
2018-12-30T02:11:36.701Z,35.03
2018-12-30T02:14:04.838Z,42.67
2018-12-30T02:16:33.013Z,54.17
2018-12-30T02:19:01.149Z,50.20
2018-12-30T02:21:29.325Z,46.87
2018-12-30T02:23:57.461Z,56.20
2018-12-30T02:26:25.629Z,66.93
2018-12-30T02:28:53.778Z,66.50
2018-12-30T02:31:21.957Z,66.27
2018-12-30T02:33:50.589Z,59.30
2018-12-30T02:36:18.762Z,69.13
2018-12-30T02:38:46.898Z,71.93
2018-12-30T02:41:15.078Z,79.07
2018-12-30T02:43:43.218Z,56.83
2018-12-30T02:46:11.654Z,54.50
2018-12-30T02:48:39.826Z,58.83
2018-12-30T02:51:07.974Z,60.83
2018-12-30T02:53:36.142Z,51.00
2018-12-30T02:56:04.282Z,60.70
2018-12-30T02:58:32.862Z,60.53
2018-12-30T03:01:01.001Z,58.70
2018-12-30T03:03:29.378Z,49.53
2018-12-30T03:05:57.518Z,48.40
2018-12-30T03:08:25.650Z,44.23
2018-12-30T03:10:53.823Z,44.10
2018-12-30T03:13:21.962Z,39.87
2018-12-30T03:15:50.137Z,37.40
2018-12-30T03:18:18.271Z,34.00
2018-12-30T03:20:46.451Z,31.17
2018-12-30T03:23:14.583Z,33.70
2018-12-30T03:25:42.755Z,34.70
2018-12-30T03:28:10.894Z,31.80
2018-12-30T03:30:39.035Z,30.93
2018-12-30T03:33:07.220Z,32.13
2018-12-30T03:35:35.349Z,25.17
2018-12-30T03:38:03.618Z,32.80
2018-12-30T03:40:31.973Z,29.53
2018-12-30T03:43:00.152Z,32.57
2018-12-30T03:45:28.296Z,25.73
2018-12-30T03:47:56.443Z,26.33
2018-12-30T03:50:24.614Z,25.33
2018-12-30T03:52:52.926Z,25.93
2018-12-30T03:55:21.100Z,26.93
2018-12-30T03:57:49.243Z,26.17
2018-12-30T04:00:17.415Z,19.17
2018-12-30T04:02:45.559Z,21.27
2018-12-30T04:05:13.739Z,28.40
2018-12-30T04:07:41.880Z,23.33
2018-12-30T04:10:10.024Z,24.13
2018-12-30T04:12:38.190Z,28.80
2018-12-30T04:15:06.330Z,22.73
2018-12-30T04:17:34.512Z,26.50
2018-12-30T04:20:02.642Z,19.67
2018-12-30T04:22:30.817Z,25.07
2018-12-30T04:24:58.959Z,19.50
2018-12-30T04:27:27.098Z,21.37
2018-12-30T04:29:55.270Z,25.33
2018-12-30T04:32:23.407Z,23.63
2018-12-30T04:34:51.588Z,27.43
2018-12-30T04:37:19.729Z,27.97
2018-12-30T04:39:47.895Z,24.27
2018-12-30T04:42:16.030Z,18.30
2018-12-30T04:44:44.207Z,21.57
2018-12-30T04:47:12.351Z,17.83
2018-12-30T04:49:40.502Z,25.53
2018-12-30T04:52:08.662Z,19.17
2018-12-30T04:54:36.802Z,18.57
2018-12-30T04:57:04.992Z,18.87
2018-12-30T04:59:33.118Z,23.33
2018-12-30T05:02:01.295Z,18.57
2018-12-30T05:04:29.430Z,22.37
2018-12-30T05:06:57.602Z,16.23
2018-12-30T05:09:25.743Z,22.20
2018-12-30T05:11:53.883Z,17.37
2018-12-30T05:14:22.059Z,22.80
2018-12-30T05:16:50.198Z,21.57
2018-12-30T05:19:18.374Z,17.93
2018-12-30T05:21:46.510Z,21.50
2018-12-30T05:24:14.691Z,16.80
2018-12-30T05:26:42.825Z,19.93
2018-12-30T05:29:11.003Z,19.37
2018-12-30T05:31:39.154Z,18.00
2018-12-30T05:34:07.295Z,18.37
2018-12-30T05:36:35.466Z,14.77
2018-12-30T05:39:05.151Z,18.93
2018-12-30T05:41:33.318Z,17.53
2018-12-30T05:44:01.446Z,18.80
2018-12-30T05:46:29.614Z,14.50
2018-12-30T05:48:57.753Z,17.70
2018-12-30T05:51:25.935Z,25.60
2018-12-30T05:53:54.098Z,17.83
2018-12-30T05:56:22.238Z,16.80
2018-12-30T05:58:50.410Z,16.53
2018-12-30T06:01:18.557Z,17.53
2018-12-30T06:03:46.723Z,21.97
2018-12-30T06:06:14.879Z,20.17
2018-12-30T06:08:43.051Z,12.50
2018-12-30T06:11:11.199Z,17.10
2018-12-30T06:13:39.332Z,16.47
2018-12-30T06:16:07.504Z,17.63
2018-12-30T06:18:35.648Z,15.83
2018-12-30T06:21:03.814Z,13.97
2018-12-30T06:23:31.956Z,17.37
2018-12-30T06:26:00.116Z,13.37
2018-12-30T06:28:28.263Z,16.20
2018-12-30T06:30:56.439Z,14.43
2018-12-30T06:33:24.579Z,20.90
2018-12-30T06:35:52.723Z,17.87
2018-12-30T06:38:20.899Z,16.50
2018-12-30T06:40:49.035Z,12.43
2018-12-30T06:43:17.202Z,13.53
2018-12-30T06:45:45.346Z,15.23
2018-12-30T06:48:13.518Z,17.53
2018-12-30T06:50:41.663Z,16.77
2018-12-30T06:53:09.835Z,16.93
2018-12-30T06:55:38.014Z,13.90
2018-12-30T06:58:06.186Z,12.87
2018-12-30T07:00:35.537Z,16.37
2018-12-30T07:03:03.885Z,17.77
2018-12-30T07:05:32.054Z,16.93
2018-12-30T07:08:00.198Z,18.57
2018-12-30T07:10:28.379Z,18.17
2018-12-30T07:12:56.518Z,19.33
2018-12-30T07:15:24.707Z,14.73
2018-12-30T07:17:52.853Z,15.43
2018-12-30T07:20:21.022Z,18.30
2018-12-30T07:22:49.162Z,14.70
2018-12-30T07:25:17.348Z,15.80
2018-12-30T07:27:45.486Z,16.50
2018-12-30T07:30:13.657Z,14.37
2018-12-30T07:32:41.799Z,15.80
2018-12-30T07:43:41.132Z,7.37
2018-12-30T07:49:01.517Z,11.13
2018-12-30T07:54:00.803Z,14.60
2018-12-30T07:56:29.219Z,14.43
2018-12-30T07:58:57.723Z,14.60
2018-12-30T08:01:26.143Z,12.60
2018-12-30T08:03:54.519Z,14.50
2018-12-30T08:06:22.908Z,14.03
2018-12-30T08:08:51.352Z,15.87
2018-12-30T08:11:19.731Z,15.47
2018-12-30T08:13:48.239Z,16.93
2018-12-30T08:16:16.624Z,15.67
2018-12-30T08:18:45.026Z,13.50
2018-12-30T08:21:13.411Z,15.27
2018-12-30T08:23:41.813Z,17.17
2018-12-30T08:26:10.212Z,18.73
2018-12-30T08:28:38.590Z,17.13
2018-12-30T08:31:07.004Z,20.00
2018-12-30T08:33:35.411Z,23.70
2018-12-30T08:36:04.208Z,19.20
2018-12-30T08:38:32.577Z,18.93
2018-12-30T08:41:02.195Z,17.57
2018-12-30T08:43:31.066Z,21.40
2018-12-30T08:45:59.559Z,16.53
2018-12-30T08:48:27.974Z,16.07
2018-12-30T08:50:56.351Z,21.10
2018-12-30T08:53:29.390Z,16.77
2018-12-30T08:55:55.327Z,23.67
2018-12-30T08:58:23.843Z,17.23
2018-12-30T09:00:52.310Z,17.57
2018-12-30T09:03:20.729Z,19.10
2018-12-30T09:05:49.105Z,18.47
2018-12-30T09:08:17.483Z,16.67
2018-12-30T09:10:45.926Z,15.60
2018-12-30T09:13:14.379Z,24.77
2018-12-30T09:15:43.742Z,13.70
2018-12-30T09:18:12.151Z,15.53
2018-12-30T09:20:40.560Z,19.57
2018-12-30T09:23:08.936Z,16.53
2018-12-30T09:25:37.338Z,18.00
2018-12-30T09:28:05.713Z,14.97
2018-12-30T09:30:34.118Z,17.23
2018-12-30T09:33:02.499Z,14.87
2018-12-30T09:35:30.883Z,16.50
2018-12-30T09:37:59.300Z,14.17
2018-12-30T09:40:27.687Z,14.97
2018-12-30T09:42:56.095Z,17.60
2018-12-30T09:45:24.489Z,18.43
2018-12-30T09:47:52.975Z,19.87
2018-12-30T09:50:21.377Z,16.43
2018-12-30T09:52:49.772Z,18.27
2018-12-30T09:55:18.176Z,12.53
2018-12-30T09:57:46.556Z,15.03
2018-12-30T10:00:14.971Z,21.23
2018-12-30T10:02:43.357Z,14.57
2018-12-30T10:05:11.783Z,19.30
2018-12-30T10:07:40.167Z,11.37
2018-12-30T10:10:08.575Z,19.37
2018-12-30T10:12:36.958Z,17.03
2018-12-30T10:15:09.578Z,20.13
2018-12-30T10:17:35.467Z,17.63
2018-12-30T10:20:05.104Z,14.07
2018-12-30T10:22:33.511Z,14.77
2018-12-30T10:25:01.903Z,16.73
2018-12-30T10:27:31.211Z,18.47
2018-12-30T10:29:59.589Z,20.40
2018-12-30T10:32:27.999Z,20.63
2018-12-30T10:34:56.407Z,17.60
2018-12-30T10:37:24.814Z,17.97
2018-12-30T10:39:53.195Z,21.43
2018-12-30T10:42:21.578Z,22.77
2018-12-30T10:44:49.999Z,19.97
2018-12-30T10:47:18.375Z,39.07
2018-12-30T10:49:46.815Z,22.50
2018-12-30T10:52:15.168Z,23.07
2018-12-30T10:54:43.584Z,15.10
2018-12-30T10:57:11.963Z,19.23
2018-12-30T10:59:40.371Z,14.87
2018-12-30T11:02:08.964Z,18.03
2018-12-30T11:04:37.362Z,18.77
2018-12-30T11:07:06.113Z,24.33
2018-12-30T11:09:34.526Z,18.60
2018-12-30T11:12:04.299Z,21.17
2018-12-30T11:14:32.695Z,17.10
2018-12-30T11:17:01.112Z,15.63
2018-12-30T11:19:29.517Z,12.53
2018-12-30T11:21:57.932Z,13.23
2018-12-30T11:24:26.316Z,16.73
2018-12-30T11:26:54.735Z,15.10
2018-12-30T11:29:23.146Z,16.77
2018-12-30T11:31:51.568Z,12.63
2018-12-30T11:34:19.974Z,16.73
2018-12-30T11:36:48.355Z,16.37
2018-12-30T11:39:16.767Z,11.93
2018-12-30T11:41:45.158Z,15.60
2018-12-30T11:44:13.565Z,19.63
2018-12-30T11:46:42.011Z,26.23
2018-12-30T11:49:10.424Z,17.77
2018-12-30T11:51:38.808Z,11.93
2018-12-30T11:54:07.221Z,14.07
2018-12-30T11:56:35.596Z,22.60
2018-12-30T11:59:04.018Z,15.83
2018-12-30T12:01:32.398Z,26.73
2018-12-30T12:04:00.779Z,15.70
2018-12-30T12:06:29.191Z,19.47
2018-12-30T12:08:57.642Z,25.23
2018-12-30T12:11:26.070Z,20.57
2018-12-30T12:13:54.435Z,23.93
2018-12-30T12:16:22.850Z,24.00
2018-12-30T12:18:51.223Z,19.83
2018-12-30T12:21:19.656Z,23.17
2018-12-30T12:23:48.032Z,23.00
2018-12-30T12:26:16.443Z,17.53
2018-12-30T12:28:44.822Z,18.73
2018-12-30T12:31:13.202Z,26.17
2018-12-30T12:33:41.680Z,18.97
2018-12-30T12:36:10.090Z,18.93
2018-12-30T12:38:38.466Z,15.43
2018-12-30T12:41:06.947Z,21.40
2018-12-30T12:43:35.327Z,24.20
2018-12-30T12:46:03.740Z,18.03
2018-12-30T12:48:32.225Z,21.03
2018-12-30T12:51:00.597Z,21.47
2018-12-30T12:53:28.975Z,18.37
2018-12-30T12:55:57.534Z,18.43
2018-12-30T12:58:25.917Z,25.90
2018-12-30T13:00:54.351Z,18.30
2018-12-30T13:03:22.735Z,18.77
2018-12-30T13:05:51.167Z,18.97
2018-12-30T13:08:19.599Z,18.43
2018-12-30T13:10:48.036Z,24.57
2018-12-30T13:13:16.411Z,17.17
2018-12-30T13:15:45.955Z,22.37
2018-12-30T13:18:14.406Z,15.80
2018-12-30T13:20:42.774Z,22.87
2018-12-30T13:23:11.306Z,20.27
2018-12-30T13:25:39.785Z,20.33
2018-12-30T13:28:08.199Z,17.70
2018-12-30T13:30:36.574Z,19.47
2018-12-30T13:33:04.950Z,21.87
2018-12-30T13:35:33.462Z,22.13
2018-12-30T13:38:01.879Z,23.90
2018-12-30T13:40:30.294Z,21.63
2018-12-30T13:42:58.689Z,23.13
2018-12-30T13:45:27.103Z,25.50
2018-12-30T13:47:55.929Z,27.43
2018-12-30T13:50:24.649Z,20.73
2018-12-30T13:52:53.119Z,23.50
2018-12-30T13:55:21.529Z,23.67
2018-12-30T13:57:49.935Z,23.97
2018-12-30T14:00:18.359Z,22.13
2018-12-30T14:02:46.761Z,25.30
2018-12-30T14:05:15.151Z,19.43
2018-12-30T14:07:43.559Z,19.27
2018-12-30T14:10:11.934Z,23.23
2018-12-30T14:12:40.415Z,22.60
2018-12-30T14:15:08.811Z,22.00
2018-12-30T14:17:37.184Z,19.13
2018-12-30T14:20:07.434Z,23.70
2018-12-30T14:22:35.813Z,26.07
2018-12-30T14:25:04.903Z,26.53
2018-12-30T14:27:33.281Z,26.00
2018-12-30T14:30:01.725Z,25.33
2018-12-30T14:32:31.450Z,22.63
2018-12-30T14:35:00.300Z,23.17
2018-12-30T14:37:28.703Z,29.80
2018-12-30T14:39:57.079Z,27.30
2018-12-30T14:42:25.489Z,22.47
2018-12-30T14:44:53.862Z,25.63
2018-12-30T14:47:25.458Z,26.50
2018-12-30T14:49:53.843Z,28.87
2018-12-30T14:52:22.251Z,27.10
2018-12-30T14:54:50.702Z,21.90
2018-12-30T14:57:19.123Z,26.17
2018-12-30T14:59:47.494Z,23.57
2018-12-30T15:02:15.877Z,23.90
2018-12-30T15:04:44.275Z,24.27
2018-12-30T15:07:13.111Z,23.57
2018-12-30T15:09:41.699Z,22.83
2018-12-30T15:12:10.077Z,26.17
2018-12-30T15:14:39.471Z,25.60
2018-12-30T15:17:07.852Z,22.20
2018-12-30T15:19:36.474Z,19.70
2018-12-30T15:22:06.545Z,20.10
2018-12-30T15:24:34.955Z,23.30
2018-12-30T15:27:03.460Z,22.53
2018-12-30T15:29:33.130Z,21.43
2018-12-30T15:32:01.666Z,23.00
2018-12-30T15:34:30.284Z,23.60
2018-12-30T15:36:58.694Z,20.30
2018-12-30T15:39:27.103Z,16.10
2018-12-30T15:41:55.619Z,16.53
2018-12-30T15:44:24.506Z,21.40
2018-12-30T15:46:52.895Z,20.03
2018-12-30T15:49:21.570Z,25.33
2018-12-30T15:51:50.182Z,18.53
2018-12-30T15:54:18.559Z,18.57
2018-12-30T15:56:47.399Z,16.90
2018-12-30T15:59:15.765Z,17.63
2018-12-30T16:01:44.435Z,13.73
2018-12-30T16:04:13.615Z,19.97
2018-12-30T16:06:42.463Z,21.03
2018-12-30T16:09:10.834Z,17.37
2018-12-30T16:11:39.853Z,18.33
2018-12-30T16:14:08.929Z,17.70
2018-12-30T16:16:37.323Z,16.17
2018-12-30T16:19:05.707Z,18.90
2018-12-30T16:21:34.114Z,18.97
2018-12-30T16:24:02.482Z,21.73
2018-12-30T16:26:30.900Z,20.73
2018-12-30T16:29:02.101Z,19.20
2018-12-30T16:31:30.511Z,18.13
2018-12-30T16:34:02.275Z,17.43
2018-12-30T16:36:30.711Z,22.87
2018-12-30T16:39:03.191Z,20.73
2018-12-30T16:41:31.568Z,20.87
2018-12-30T16:43:59.947Z,25.93
2018-12-30T16:46:28.496Z,14.57
2018-12-30T16:48:56.863Z,25.63
2018-12-30T16:51:25.269Z,19.93
2018-12-30T16:53:54.075Z,22.83
2018-12-30T16:56:22.884Z,19.67
2018-12-30T16:58:51.266Z,18.07
2018-12-30T17:01:19.899Z,16.37
2018-12-30T17:03:48.280Z,23.33
2018-12-30T17:06:16.655Z,20.37
2018-12-30T17:08:45.068Z,19.13
2018-12-30T17:11:15.506Z,21.82
2018-12-30T17:13:43.901Z,20.53
2018-12-30T17:16:12.674Z,23.33
2018-12-30T17:18:41.272Z,17.27
2018-12-30T17:21:09.646Z,20.60
2018-12-30T17:23:38.062Z,20.43
2018-12-30T17:26:06.453Z,23.47
2018-12-30T17:28:35.298Z,24.90
2018-12-30T17:31:06.609Z,28.73
2018-12-30T17:33:35.026Z,21.07
2018-12-30T17:36:03.407Z,22.07
2018-12-30T17:38:32.104Z,24.50
2018-12-30T17:41:01.677Z,24.47
2018-12-30T17:43:31.804Z,27.77
2018-12-30T17:46:00.575Z,23.43
2018-12-30T17:48:29.050Z,22.87
2018-12-30T17:50:57.432Z,21.77
2018-12-30T17:53:25.840Z,19.90
2018-12-30T17:55:54.219Z,17.97
2018-12-30T17:58:22.631Z,21.77
2018-12-30T18:00:51.015Z,16.80
2018-12-30T18:03:19.428Z,17.17
2018-12-30T18:05:47.801Z,19.60
2018-12-30T18:08:17.622Z,20.90
2018-12-30T18:10:46.194Z,21.10
2018-12-30T18:13:14.599Z,15.03
2018-12-30T18:15:42.974Z,22.00
2018-12-30T18:18:11.355Z,20.13
2018-12-30T18:20:39.767Z,20.70
2018-12-30T18:23:08.177Z,24.80
2018-12-30T18:25:36.551Z,20.00
2018-12-30T18:28:04.964Z,27.93
2018-12-30T18:30:33.348Z,17.77
2018-12-30T18:33:01.750Z,22.13
2018-12-30T18:35:30.126Z,21.50
2018-12-30T18:37:58.537Z,19.90
2018-12-30T18:40:26.947Z,19.27
2018-12-30T18:42:55.327Z,20.73
2018-12-30T18:45:23.734Z,16.67
2018-12-30T18:47:52.116Z,20.80
2018-12-30T18:50:20.749Z,23.03
2018-12-30T18:52:49.386Z,19.87
2018-12-30T18:55:18.282Z,25.03
2018-12-30T18:57:46.715Z,18.93
2018-12-30T19:00:18.294Z,16.47
2018-12-30T19:02:46.764Z,24.10
2018-12-30T19:05:15.175Z,19.13
2018-12-30T19:07:43.556Z,21.60
2018-12-30T19:10:11.934Z,19.60
2018-12-30T19:12:40.345Z,22.53
2018-12-30T19:15:08.728Z,18.63
2018-12-30T19:17:37.135Z,21.80
2018-12-30T19:20:05.516Z,19.53
2018-12-30T19:22:33.927Z,26.20
2018-12-30T19:25:02.411Z,17.00
2018-12-30T19:27:35.317Z,19.23
2018-12-30T19:30:05.179Z,19.73
2018-12-30T19:32:33.587Z,19.47
2018-12-30T19:35:04.072Z,23.30
2018-12-30T19:37:32.575Z,18.63
2018-12-30T19:40:01.492Z,26.33
2018-12-30T19:45:43.206Z,18.57
2018-12-30T19:48:11.655Z,23.60
2018-12-30T19:50:40.067Z,18.87
2018-12-30T19:53:08.448Z,19.83
2018-12-30T19:55:36.859Z,23.47
2018-12-30T19:58:05.243Z,24.07
2018-12-30T20:00:33.657Z,20.50
2018-12-30T20:03:02.036Z,22.00
2018-12-30T20:05:30.412Z,23.93
2018-12-30T20:07:58.822Z,24.03
2018-12-30T20:10:27.216Z,19.73
2018-12-30T20:12:55.645Z,26.27
2018-12-30T20:15:24.033Z,22.33
2018-12-30T20:17:52.484Z,23.33
2018-12-30T20:20:27.207Z,19.33
2018-12-30T20:22:55.639Z,22.30
2018-12-30T20:25:24.023Z,17.07
2018-12-30T20:27:52.684Z,19.63
2018-12-30T20:30:21.103Z,18.23
2018-12-30T20:32:49.489Z,18.13
2018-12-30T20:35:17.899Z,21.93
2018-12-30T20:37:46.358Z,16.50
2018-12-30T20:40:14.744Z,21.77
2018-12-30T20:42:43.155Z,17.57
2018-12-30T20:45:11.542Z,23.10
2018-12-30T20:47:40.831Z,23.10
2018-12-30T20:50:09.212Z,24.13
2018-12-30T20:52:37.711Z,22.73
2018-12-30T20:55:06.019Z,21.60
2018-12-30T20:57:34.436Z,20.57
2018-12-30T21:00:02.815Z,17.27
2018-12-30T21:02:31.235Z,19.03
2018-12-30T21:04:59.683Z,23.50
2018-12-30T21:07:28.150Z,23.13
2018-12-30T21:09:56.531Z,21.73
2018-12-30T21:12:24.952Z,31.13
2018-12-30T21:14:53.335Z,27.10
2018-12-30T21:17:21.767Z,26.20
2018-12-30T21:19:50.158Z,22.87
2018-12-30T21:22:18.542Z,24.33
2018-12-30T21:24:46.977Z,24.93
2018-12-30T21:27:15.358Z,27.77
2018-12-30T21:29:43.847Z,25.03
2018-12-30T21:32:12.231Z,19.83
2018-12-30T21:34:40.710Z,26.83
2018-12-30T21:37:09.029Z,27.03
2018-12-30T21:39:37.440Z,23.67
2018-12-30T21:42:05.937Z,25.80
2018-12-30T21:44:34.354Z,26.27
2018-12-30T21:47:02.744Z,26.73
2018-12-30T21:49:31.124Z,23.00
2018-12-30T21:51:59.607Z,25.17
2018-12-30T21:54:27.992Z,22.27
2018-12-30T21:56:56.475Z,24.07
2018-12-30T21:59:26.261Z,23.93
2018-12-30T22:01:55.038Z,24.50
2018-12-30T22:04:23.427Z,30.40
2018-12-30T22:06:51.938Z,23.30
2018-12-30T22:09:20.318Z,30.67
2018-12-30T22:11:48.825Z,27.00
2018-12-30T22:14:17.160Z,25.47
2018-12-30T22:16:45.539Z,24.97
2018-12-30T22:19:13.963Z,25.90
2018-12-30T22:21:42.347Z,27.77
2018-12-30T22:24:10.768Z,26.60
2018-12-30T22:26:39.155Z,23.93
2018-12-30T22:29:07.546Z,27.60
2018-12-30T22:31:39.427Z,28.60
2018-12-30T22:34:07.771Z,29.47
2018-12-30T22:36:36.198Z,29.33
2018-12-30T22:39:08.403Z,28.90
2018-12-30T22:41:36.823Z,31.03
2018-12-30T22:44:05.216Z,30.70
2018-12-30T22:46:33.627Z,33.37
2018-12-30T22:49:02.002Z,37.17
2018-12-30T22:51:30.415Z,30.83
2018-12-30T22:53:58.794Z,34.87
2018-12-30T22:56:27.207Z,35.63
2018-12-30T22:58:55.631Z,33.03
2018-12-30T23:01:24.011Z,39.77
2018-12-30T23:03:52.418Z,41.27
2018-12-30T23:06:20.836Z,40.33
2018-12-30T23:08:49.214Z,36.87
2018-12-30T23:11:17.626Z,34.17
2018-12-30T23:13:46.007Z,38.87
2018-12-30T23:16:14.414Z,32.50
2018-12-30T23:18:42.794Z,32.93
2018-12-30T23:21:11.232Z,41.40
2018-12-30T23:23:39.655Z,34.83
2018-12-30T23:26:08.079Z,32.17
2018-12-30T23:28:36.459Z,37.43
2018-12-30T23:31:04.844Z,35.90
2018-12-30T23:33:33.255Z,35.97
2018-12-30T23:36:01.642Z,38.60
2018-12-30T23:38:30.048Z,38.33
2018-12-30T23:40:58.431Z,32.00
2018-12-30T23:43:26.837Z,29.77
2018-12-30T23:45:55.223Z,36.07
2018-12-30T23:48:23.634Z,35.37
2018-12-30T23:50:55.082Z,28.13
2018-12-30T23:53:23.567Z,34.63
2018-12-30T23:55:51.942Z,35.07
2018-12-30T23:58:20.322Z,30.97
